sensor_id;sensor_type;location;lat;lon;timestamp;pressure;altitude;pressure_sealevel;temperature;humidity
22753;BME280;11543;43.144;24.684;2024-03-29T00:01:35;98422.53;;;14.36;53.34
22753;BME280;11543;43.144;24.684;2024-03-29T00:04:00;98425.34;;;14.43;53.16
22753;BME280;11543;43.144;24.684;2024-03-29T00:06:26;98428.50;;;14.46;52.47
22753;BME280;11543;43.144;24.684;2024-03-29T00:08:51;98417.13;;;14.36;50.81
22753;BME280;11543;43.144;24.684;2024-03-29T00:11:17;98422.16;;;14.39;50.82
22753;BME280;11543;43.144;24.684;2024-03-29T00:13:42;98425.97;;;14.45;49.94
22753;BME280;11543;43.144;24.684;2024-03-29T00:16:08;98427.28;;;14.49;49.46
22753;BME280;11543;43.144;24.684;2024-03-29T00:18:33;98419.91;;;14.57;49.03
22753;BME280;11543;43.144;24.684;2024-03-29T00:20:59;98410.91;;;14.72;48.85
22753;BME280;11543;43.144;24.684;2024-03-29T00:23:24;98417.88;;;14.81;48.47
22753;BME280;11543;43.144;24.684;2024-03-29T00:25:50;98423.53;;;14.86;47.77
22753;BME280;11543;43.144;24.684;2024-03-29T00:28:15;98420.34;;;14.97;48.03
22753;BME280;11543;43.144;24.684;2024-03-29T00:30:41;98421.28;;;15.11;47.62
22753;BME280;11543;43.144;24.684;2024-03-29T00:33:06;98421.09;;;15.12;47.72
22753;BME280;11543;43.144;24.684;2024-03-29T00:35:31;98422.19;;;15.18;47.32
22753;BME280;11543;43.144;24.684;2024-03-29T00:37:57;98422.88;;;15.26;46.80
22753;BME280;11543;43.144;24.684;2024-03-29T00:40:22;98423.56;;;15.35;46.60
22753;BME280;11543;43.144;24.684;2024-03-29T00:42:48;98414.47;;;15.43;46.88
22753;BME280;11543;43.144;24.684;2024-03-29T00:45:13;98411.00;;;15.49;46.20
22753;BME280;11543;43.144;24.684;2024-03-29T00:47:39;98418.72;;;15.52;46.31
22753;BME280;11543;43.144;24.684;2024-03-29T00:50:05;98424.28;;;15.65;46.77
22753;BME280;11543;43.144;24.684;2024-03-29T00:52:30;98416.00;;;15.73;47.74
22753;BME280;11543;43.144;24.684;2024-03-29T00:54:56;98418.06;;;15.71;49.01
22753;BME280;11543;43.144;24.684;2024-03-29T00:57:21;98430.94;;;15.69;49.31
22753;BME280;11543;43.144;24.684;2024-03-29T00:59:46;98431.16;;;15.68;49.82
22753;BME280;11543;43.144;24.684;2024-03-29T01:02:12;98440.88;;;15.62;49.94
22753;BME280;11543;43.144;24.684;2024-03-29T01:04:38;98445.63;;;15.60;50.36
22753;BME280;11543;43.144;24.684;2024-03-29T01:07:05;98446.66;;;15.59;50.39
22753;BME280;11543;43.144;24.684;2024-03-29T01:09:30;98447.84;;;15.56;50.55
22753;BME280;11543;43.144;24.684;2024-03-29T01:11:56;98458.22;;;15.53;50.83
22753;BME280;11543;43.144;24.684;2024-03-29T01:14:21;98469.44;;;15.50;50.84
22753;BME280;11543;43.144;24.684;2024-03-29T01:16:47;98470.81;;;15.39;51.26
22753;BME280;11543;43.144;24.684;2024-03-29T01:19:12;98478.78;;;15.26;51.58
22753;BME280;11543;43.144;24.684;2024-03-29T01:21:38;98476.69;;;15.21;51.72
22753;BME280;11543;43.144;24.684;2024-03-29T01:24:03;98481.19;;;15.14;51.82
22753;BME280;11543;43.144;24.684;2024-03-29T01:26:30;98476.16;;;15.11;51.76
22753;BME280;11543;43.144;24.684;2024-03-29T01:28:55;98481.25;;;15.00;52.20
22753;BME280;11543;43.144;24.684;2024-03-29T01:31:22;98486.38;;;14.94;52.44
22753;BME280;11543;43.144;24.684;2024-03-29T01:33:49;98497.50;;;14.85;52.17
22753;BME280;11543;43.144;24.684;2024-03-29T01:36:14;98501.22;;;14.84;52.35
22753;BME280;11543;43.144;24.684;2024-03-29T01:38:40;98495.81;;;14.84;52.51
22753;BME280;11543;43.144;24.684;2024-03-29T01:41:05;98528.63;;;14.66;52.96
22753;BME280;11543;43.144;24.684;2024-03-29T01:43:32;98503.31;;;14.52;53.27
22753;BME280;11543;43.144;24.684;2024-03-29T01:45:58;98504.88;;;14.32;53.88
22753;BME280;11543;43.144;24.684;2024-03-29T01:48:24;98536.25;;;14.33;54.00
22753;BME280;11543;43.144;24.684;2024-03-29T01:50:51;98513.56;;;14.42;54.23
22753;BME280;11543;43.144;24.684;2024-03-29T01:53:18;98536.06;;;14.20;54.50
22753;BME280;11543;43.144;24.684;2024-03-29T01:55:44;98531.41;;;14.14;54.54
22753;BME280;11543;43.144;24.684;2024-03-29T01:58:11;98530.75;;;13.97;54.91
22753;BME280;11543;43.144;24.684;2024-03-29T02:00:39;98534.28;;;13.97;54.73
22753;BME280;11543;43.144;24.684;2024-03-29T02:03:06;98530.41;;;13.77;55.33
22753;BME280;11543;43.144;24.684;2024-03-29T02:05:36;98548.38;;;13.85;55.38
22753;BME280;11543;43.144;24.684;2024-03-29T02:08:04;98545.47;;;13.86;55.24
22753;BME280;11543;43.144;24.684;2024-03-29T02:10:29;98550.66;;;13.96;55.38
22753;BME280;11543;43.144;24.684;2024-03-29T02:12:55;98559.84;;;14.01;55.21
22753;BME280;11543;43.144;24.684;2024-03-29T02:15:20;98562.84;;;14.07;55.09
22753;BME280;11543;43.144;24.684;2024-03-29T02:17:46;98567.88;;;14.10;54.82
22753;BME280;11543;43.144;24.684;2024-03-29T02:20:11;98582.38;;;14.09;54.78
22753;BME280;11543;43.144;24.684;2024-03-29T02:22:41;98576.88;;;14.02;55.10
22753;BME280;11543;43.144;24.684;2024-03-29T02:25:12;98581.34;;;14.10;55.17
22753;BME280;11543;43.144;24.684;2024-03-29T02:27:38;98574.56;;;14.14;54.86
22753;BME280;11543;43.144;24.684;2024-03-29T02:30:04;98583.31;;;14.16;54.75
22753;BME280;11543;43.144;24.684;2024-03-29T02:32:29;98586.19;;;14.14;54.76
22753;BME280;11543;43.144;24.684;2024-03-29T02:34:56;98590.94;;;14.12;54.72
22753;BME280;11543;43.144;24.684;2024-03-29T02:37:23;98591.13;;;14.11;54.79
22753;BME280;11543;43.144;24.684;2024-03-29T02:39:48;98598.56;;;14.09;54.61
22753;BME280;11543;43.144;24.684;2024-03-29T02:42:15;98603.50;;;14.05;54.55
22753;BME280;11543;43.144;24.684;2024-03-29T02:44:42;98608.50;;;14.08;54.58
22753;BME280;11543;43.144;24.684;2024-03-29T02:47:09;98610.38;;;14.08;54.79
22753;BME280;11543;43.144;24.684;2024-03-29T02:49:35;98598.28;;;14.03;54.61
22753;BME280;11543;43.144;24.684;2024-03-29T02:52:01;98605.06;;;13.99;54.79
22753;BME280;11543;43.144;24.684;2024-03-29T02:54:26;98605.59;;;13.95;54.93
22753;BME280;11543;43.144;24.684;2024-03-29T02:56:52;98612.38;;;13.91;54.94
22753;BME280;11543;43.144;24.684;2024-03-29T02:59:18;98603.13;;;13.85;55.21
22753;BME280;11543;43.144;24.684;2024-03-29T03:01:44;98606.84;;;13.84;55.22
22753;BME280;11543;43.144;24.684;2024-03-29T03:04:09;98614.94;;;13.84;55.33
22753;BME280;11543;43.144;24.684;2024-03-29T03:06:35;98615.31;;;13.81;55.39
22753;BME280;11543;43.144;24.684;2024-03-29T03:09:00;98622.06;;;13.77;55.74
22753;BME280;11543;43.144;24.684;2024-03-29T03:11:44;98619.09;;;13.72;55.68
22753;BME280;11543;43.144;24.684;2024-03-29T03:14:10;98632.75;;;13.70;55.68
22753;BME280;11543;43.144;24.684;2024-03-29T03:16:36;98644.78;;;13.60;55.79
22753;BME280;11543;43.144;24.684;2024-03-29T03:19:01;98632.38;;;13.51;55.81
22753;BME280;11543;43.144;24.684;2024-03-29T03:21:27;98637.06;;;13.57;55.92
22753;BME280;11543;43.144;24.684;2024-03-29T03:23:53;98644.47;;;13.55;55.95
22753;BME280;11543;43.144;24.684;2024-03-29T03:26:19;98643.66;;;13.54;55.92
22753;BME280;11543;43.144;24.684;2024-03-29T03:28:44;98644.00;;;13.51;56.02
22753;BME280;11543;43.144;24.684;2024-03-29T03:31:10;98656.22;;;13.39;55.99
22753;BME280;11543;43.144;24.684;2024-03-29T03:33:36;98656.34;;;13.46;55.92
22753;BME280;11543;43.144;24.684;2024-03-29T03:36:01;98663.16;;;13.33;55.98
22753;BME280;11543;43.144;24.684;2024-03-29T03:38:27;98657.63;;;13.27;56.17
22753;BME280;11543;43.144;24.684;2024-03-29T03:40:53;98652.47;;;13.17;56.73
22753;BME280;11543;43.144;24.684;2024-03-29T03:43:19;98666.25;;;13.22;56.61
22753;BME280;11543;43.144;24.684;2024-03-29T03:45:44;98655.47;;;13.14;56.80
22753;BME280;11543;43.144;24.684;2024-03-29T03:48:10;98670.13;;;13.12;57.16
22753;BME280;11543;43.144;24.684;2024-03-29T03:50:37;98669.28;;;13.11;57.20
22753;BME280;11543;43.144;24.684;2024-03-29T03:53:03;98685.50;;;13.03;57.30
22753;BME280;11543;43.144;24.684;2024-03-29T03:55:29;98676.09;;;12.91;57.66
22753;BME280;11543;43.144;24.684;2024-03-29T03:57:55;98689.06;;;12.79;58.21
22753;BME280;11543;43.144;24.684;2024-03-29T04:00:24;98692.31;;;12.66;58.04
22753;BME280;11543;43.144;24.684;2024-03-29T04:02:49;98696.53;;;12.53;58.59
22753;BME280;11543;43.144;24.684;2024-03-29T04:05:19;98702.63;;;12.47;59.03
22753;BME280;11543;43.144;24.684;2024-03-29T04:07:45;98713.22;;;12.40;59.05
22753;BME280;11543;43.144;24.684;2024-03-29T04:10:11;98713.91;;;12.34;59.36
22753;BME280;11543;43.144;24.684;2024-03-29T04:12:37;98727.00;;;12.29;59.83
22753;BME280;11543;43.144;24.684;2024-03-29T04:15:03;98726.66;;;12.07;59.99
22753;BME280;11543;43.144;24.684;2024-03-29T04:17:29;98754.88;;;11.95;59.89
22753;BME280;11543;43.144;24.684;2024-03-29T04:19:56;98745.97;;;11.95;61.13
22753;BME280;11543;43.144;24.684;2024-03-29T04:22:22;98760.59;;;12.00;60.87
22753;BME280;11543;43.144;24.684;2024-03-29T04:24:48;98763.78;;;11.96;60.97
22753;BME280;11543;43.144;24.684;2024-03-29T04:27:14;98757.56;;;11.95;61.01
22753;BME280;11543;43.144;24.684;2024-03-29T04:29:39;98759.91;;;11.90;61.11
22753;BME280;11543;43.144;24.684;2024-03-29T04:32:05;98772.34;;;11.91;61.34
22753;BME280;11543;43.144;24.684;2024-03-29T04:34:31;98765.28;;;11.90;61.21
22753;BME280;11543;43.144;24.684;2024-03-29T04:36:56;98784.44;;;11.95;61.28
22753;BME280;11543;43.144;24.684;2024-03-29T04:39:22;98777.72;;;11.91;61.40
22753;BME280;11543;43.144;24.684;2024-03-29T04:41:47;98799.41;;;11.98;61.56
22753;BME280;11543;43.144;24.684;2024-03-29T04:44:22;98801.25;;;12.05;61.42
22753;BME280;11543;43.144;24.684;2024-03-29T04:46:49;98798.06;;;11.94;61.34
22753;BME280;11543;43.144;24.684;2024-03-29T04:49:15;98800.91;;;11.92;61.26
22753;BME280;11543;43.144;24.684;2024-03-29T04:51:43;98813.16;;;11.87;61.90
22753;BME280;11543;43.144;24.684;2024-03-29T04:54:08;98813.34;;;11.93;61.99
22753;BME280;11543;43.144;24.684;2024-03-29T04:56:34;98810.31;;;11.96;61.89
22753;BME280;11543;43.144;24.684;2024-03-29T04:59:01;98813.53;;;12.08;61.64
22753;BME280;11543;43.144;24.684;2024-03-29T05:01:27;98822.16;;;12.20;61.32
22753;BME280;11543;43.144;24.684;2024-03-29T05:03:53;98824.34;;;12.24;61.38
22753;BME280;11543;43.144;24.684;2024-03-29T05:06:18;98825.53;;;12.30;60.82
22753;BME280;11543;43.144;24.684;2024-03-29T05:08:44;98828.22;;;12.30;61.06
22753;BME280;11543;43.144;24.684;2024-03-29T05:11:09;98834.13;;;12.41;60.65
22753;BME280;11543;43.144;24.684;2024-03-29T05:13:39;98822.19;;;12.44;60.65
22753;BME280;11543;43.144;24.684;2024-03-29T05:16:05;98833.97;;;12.51;60.55
22753;BME280;11543;43.144;24.684;2024-03-29T05:18:31;98841.69;;;12.54;60.40
22753;BME280;11543;43.144;24.684;2024-03-29T05:20:56;98849.09;;;12.60;60.31
22753;BME280;11543;43.144;24.684;2024-03-29T05:23:22;98853.47;;;12.69;60.19
22753;BME280;11543;43.144;24.684;2024-03-29T05:25:47;98858.19;;;12.75;60.14
22753;BME280;11543;43.144;24.684;2024-03-29T05:28:14;98866.25;;;12.84;59.89
22753;BME280;11543;43.144;24.684;2024-03-29T05:30:40;98869.63;;;12.86;59.97
22753;BME280;11543;43.144;24.684;2024-03-29T05:33:05;98868.94;;;12.92;60.10
22753;BME280;11543;43.144;24.684;2024-03-29T05:35:32;98858.03;;;13.01;59.96
22753;BME280;11543;43.144;24.684;2024-03-29T05:37:58;98853.47;;;13.10;59.59
22753;BME280;11543;43.144;24.684;2024-03-29T05:40:23;98863.22;;;13.27;59.58
22753;BME280;11543;43.144;24.684;2024-03-29T05:42:53;98873.66;;;13.38;59.30
22753;BME280;11543;43.144;24.684;2024-03-29T05:45:24;98878.66;;;13.50;59.25
22753;BME280;11543;43.144;24.684;2024-03-29T05:47:51;98870.56;;;13.58;59.28
22753;BME280;11543;43.144;24.684;2024-03-29T05:50:17;98865.66;;;13.61;59.15
22753;BME280;11543;43.144;24.684;2024-03-29T05:52:42;98872.53;;;13.72;59.19
22753;BME280;11543;43.144;24.684;2024-03-29T05:55:08;98874.34;;;13.80;59.28
22753;BME280;11543;43.144;24.684;2024-03-29T05:57:35;98878.38;;;13.84;59.14
22753;BME280;11543;43.144;24.684;2024-03-29T06:00:05;98884.13;;;13.89;59.01
22753;BME280;11543;43.144;24.684;2024-03-29T06:02:30;98876.88;;;13.89;59.12
22753;BME280;11543;43.144;24.684;2024-03-29T06:04:56;98882.94;;;13.91;59.29
22753;BME280;11543;43.144;24.684;2024-03-29T06:07:21;98873.78;;;14.00;59.38
22753;BME280;11543;43.144;24.684;2024-03-29T06:09:47;98881.47;;;14.12;59.23
22753;BME280;11543;43.144;24.684;2024-03-29T06:12:12;98886.81;;;14.20;59.31
22753;BME280;11543;43.144;24.684;2024-03-29T06:14:41;98877.00;;;14.27;59.38
22753;BME280;11543;43.144;24.684;2024-03-29T06:17:25;98885.06;;;14.35;59.29
22753;BME280;11543;43.144;24.684;2024-03-29T06:19:55;98878.59;;;14.44;59.32
22753;BME280;11543;43.144;24.684;2024-03-29T06:22:25;98892.41;;;14.49;59.21
22753;BME280;11543;43.144;24.684;2024-03-29T06:24:55;98892.06;;;14.52;59.23
22753;BME280;11543;43.144;24.684;2024-03-29T06:27:27;98889.66;;;14.57;56.18
22753;BME280;11543;43.144;24.684;2024-03-29T06:29:52;98882.34;;;14.66;55.54
22753;BME280;11543;43.144;24.684;2024-03-29T06:32:18;98899.75;;;14.86;54.83
22753;BME280;11543;43.144;24.684;2024-03-29T06:34:44;98899.16;;;14.99;53.97
22753;BME280;11543;43.144;24.684;2024-03-29T06:37:10;98898.63;;;15.18;52.92
22753;BME280;11543;43.144;24.684;2024-03-29T06:39:36;98907.06;;;15.38;51.65
22753;BME280;11543;43.144;24.684;2024-03-29T06:42:02;98899.16;;;15.51;51.41
22753;BME280;11543;43.144;24.684;2024-03-29T06:44:27;98904.91;;;15.71;50.48
22753;BME280;11543;43.144;24.684;2024-03-29T06:46:53;98896.69;;;15.79;49.91
22753;BME280;11543;43.144;24.684;2024-03-29T06:49:20;98896.97;;;15.99;49.38
22753;BME280;11543;43.144;24.684;2024-03-29T06:51:46;98890.13;;;16.18;48.90
22753;BME280;11543;43.144;24.684;2024-03-29T06:54:11;98903.69;;;16.39;47.15
22753;BME280;11543;43.144;24.684;2024-03-29T06:56:37;98904.41;;;16.63;46.14
22753;BME280;11543;43.144;24.684;2024-03-29T06:59:03;98917.03;;;16.92;46.42
22753;BME280;11543;43.144;24.684;2024-03-29T07:01:29;98920.94;;;17.10;45.94
22753;BME280;11543;43.144;24.684;2024-03-29T07:03:54;98912.28;;;17.22;45.27
22753;BME280;11543;43.144;24.684;2024-03-29T07:06:19;98917.69;;;17.43;45.17
22753;BME280;11543;43.144;24.684;2024-03-29T07:08:45;98922.44;;;17.62;45.92
22753;BME280;11543;43.144;24.684;2024-03-29T07:11:12;98920.09;;;17.87;46.01
22753;BME280;11543;43.144;24.684;2024-03-29T07:13:38;98909.56;;;18.05;45.74
22753;BME280;11543;43.144;24.684;2024-03-29T07:16:04;98912.78;;;18.22;43.48
22753;BME280;11543;43.144;24.684;2024-03-29T07:18:29;98909.31;;;18.41;43.91
22753;BME280;11543;43.144;24.684;2024-03-29T07:20:55;98928.59;;;18.60;44.06
22753;BME280;11543;43.144;24.684;2024-03-29T07:23:21;98938.94;;;18.84;43.34
22753;BME280;11543;43.144;24.684;2024-03-29T07:26:07;98940.69;;;19.12;42.17
22753;BME280;11543;43.144;24.684;2024-03-29T07:28:37;98924.59;;;19.30;43.80
22753;BME280;11543;43.144;24.684;2024-03-29T07:31:07;98928.97;;;19.44;40.21
22753;BME280;11543;43.144;24.684;2024-03-29T07:33:33;98933.38;;;19.71;41.19
22753;BME280;11543;43.144;24.684;2024-03-29T07:35:59;98923.06;;;19.93;40.39
22753;BME280;11543;43.144;24.684;2024-03-29T07:38:24;98926.38;;;20.15;39.29
22753;BME280;11543;43.144;24.684;2024-03-29T07:40:51;98931.34;;;20.38;39.42
22753;BME280;11543;43.144;24.684;2024-03-29T07:43:17;98916.84;;;20.51;39.55
22753;BME280;11543;43.144;24.684;2024-03-29T07:45:43;98931.63;;;20.68;39.91
22753;BME280;11543;43.144;24.684;2024-03-29T07:48:13;98921.91;;;20.85;39.37
22753;BME280;11543;43.144;24.684;2024-03-29T07:50:40;98932.28;;;21.02;37.89
22753;BME280;11543;43.144;24.684;2024-03-29T07:53:07;98933.88;;;21.16;37.81
22753;BME280;11543;43.144;24.684;2024-03-29T07:55:33;98923.06;;;21.34;37.33
22753;BME280;11543;43.144;24.684;2024-03-29T07:58:00;98932.81;;;21.48;37.05
22753;BME280;11543;43.144;24.684;2024-03-29T08:00:27;98943.16;;;21.65;37.45
22753;BME280;11543;43.144;24.684;2024-03-29T08:02:52;98938.06;;;21.75;35.65
22753;BME280;11543;43.144;24.684;2024-03-29T08:05:20;98948.84;;;21.88;36.81
22753;BME280;11543;43.144;24.684;2024-03-29T08:07:46;98945.91;;;21.89;35.19
22753;BME280;11543;43.144;24.684;2024-03-29T08:10:11;98944.28;;;22.07;35.41
22753;BME280;11543;43.144;24.684;2024-03-29T08:12:37;98932.59;;;22.18;35.64
22753;BME280;11543;43.144;24.684;2024-03-29T08:15:03;98942.97;;;22.28;36.77
22753;BME280;11543;43.144;24.684;2024-03-29T08:17:29;98940.16;;;22.34;35.33
22753;BME280;11543;43.144;24.684;2024-03-29T08:19:54;98934.63;;;22.41;36.34
22753;BME280;11543;43.144;24.684;2024-03-29T08:22:20;98941.44;;;22.50;36.57
22753;BME280;11543;43.144;24.684;2024-03-29T08:24:46;98938.44;;;22.58;34.74
22753;BME280;11543;43.144;24.684;2024-03-29T08:27:11;98941.78;;;22.60;36.05
22753;BME280;11543;43.144;24.684;2024-03-29T08:29:37;98931.94;;;22.71;34.91
22753;BME280;11543;43.144;24.684;2024-03-29T08:32:03;98926.84;;;22.74;34.60
22753;BME280;11543;43.144;24.684;2024-03-29T08:34:29;98922.16;;;22.81;33.15
22753;BME280;11543;43.144;24.684;2024-03-29T08:37:00;98930.03;;;22.90;36.54
22753;BME280;11543;43.144;24.684;2024-03-29T08:39:26;98929.38;;;23.06;34.48
22753;BME280;11543;43.144;24.684;2024-03-29T08:41:52;98927.00;;;23.09;34.50
22753;BME280;11543;43.144;24.684;2024-03-29T08:44:17;98926.75;;;23.11;33.47
22753;BME280;11543;43.144;24.684;2024-03-29T08:46:43;98927.50;;;23.18;32.96
22753;BME280;11543;43.144;24.684;2024-03-29T08:49:08;98934.91;;;23.29;33.85
22753;BME280;11543;43.144;24.684;2024-03-29T08:51:33;98940.25;;;23.24;32.62
22753;BME280;11543;43.144;24.684;2024-03-29T08:53:59;98938.22;;;23.31;32.20
22753;BME280;11543;43.144;24.684;2024-03-29T08:56:27;98940.25;;;23.36;32.97
22753;BME280;11543;43.144;24.684;2024-03-29T08:58:52;98934.25;;;23.45;33.43
22753;BME280;11543;43.144;24.684;2024-03-29T09:01:18;98923.56;;;23.56;32.63
22753;BME280;11543;43.144;24.684;2024-03-29T09:03:44;98923.81;;;23.66;32.63
22753;BME280;11543;43.144;24.684;2024-03-29T09:06:10;98915.22;;;23.74;33.57
22753;BME280;11543;43.144;24.684;2024-03-29T09:08:35;98931.66;;;23.74;32.59
22753;BME280;11543;43.144;24.684;2024-03-29T09:11:01;98929.53;;;23.76;32.78
22753;BME280;11543;43.144;24.684;2024-03-29T09:13:29;98922.13;;;23.88;32.38
22753;BME280;11543;43.144;24.684;2024-03-29T09:15:55;98918.66;;;24.04;31.77
22753;BME280;11543;43.144;24.684;2024-03-29T09:18:21;98916.75;;;24.05;31.73
22753;BME280;11543;43.144;24.684;2024-03-29T09:20:58;98901.72;;;24.19;30.90
22753;BME280;11543;43.144;24.684;2024-03-29T09:23:28;98907.06;;;24.26;30.34
22753;BME280;11543;43.144;24.684;2024-03-29T09:25:57;98903.66;;;24.30;30.80
22753;BME280;11543;43.144;24.684;2024-03-29T09:28:23;98897.06;;;24.43;31.67
22753;BME280;11543;43.144;24.684;2024-03-29T09:30:49;98892.25;;;24.50;32.10
22753;BME280;11543;43.144;24.684;2024-03-29T09:33:14;98883.00;;;24.68;33.00
22753;BME280;11543;43.144;24.684;2024-03-29T09:35:40;98885.00;;;24.72;31.35
22753;BME280;11543;43.144;24.684;2024-03-29T09:38:05;98889.75;;;24.77;32.44
22753;BME280;11543;43.144;24.684;2024-03-29T09:40:32;98881.22;;;24.90;32.55
22753;BME280;11543;43.144;24.684;2024-03-29T09:43:00;98881.28;;;25.07;32.87
22753;BME280;11543;43.144;24.684;2024-03-29T09:45:35;98888.63;;;25.18;31.80
22753;BME280;11543;43.144;24.684;2024-03-29T09:48:06;98871.25;;;25.29;32.20
22753;BME280;11543;43.144;24.684;2024-03-29T09:50:33;98867.84;;;25.22;30.28
22753;BME280;11543;43.144;24.684;2024-03-29T09:53:01;98884.41;;;25.27;30.08
22753;BME280;11543;43.144;24.684;2024-03-29T09:55:27;98870.66;;;25.27;30.89
22753;BME280;11543;43.144;24.684;2024-03-29T09:57:53;98880.41;;;25.35;30.41
22753;BME280;11543;43.144;24.684;2024-03-29T10:00:19;98869.16;;;25.36;30.90
22753;BME280;11543;43.144;24.684;2024-03-29T10:02:47;98873.25;;;25.51;30.26
22753;BME280;11543;43.144;24.684;2024-03-29T10:05:15;98872.66;;;25.65;30.26
22753;BME280;11543;43.144;24.684;2024-03-29T10:07:41;98862.47;;;25.83;29.42
22753;BME280;11543;43.144;24.684;2024-03-29T10:10:08;98851.94;;;25.96;30.18
22753;BME280;11543;43.144;24.684;2024-03-29T10:12:34;98852.09;;;26.07;30.12
22753;BME280;11543;43.144;24.684;2024-03-29T10:14:59;98847.56;;;26.17;30.89
22753;BME280;11543;43.144;24.684;2024-03-29T10:17:34;98848.50;;;26.28;30.88
22753;BME280;11543;43.144;24.684;2024-03-29T10:20:03;98860.59;;;26.27;29.46
22753;BME280;11543;43.144;24.684;2024-03-29T10:22:42;98848.09;;;26.36;30.52
22753;BME280;11543;43.144;24.684;2024-03-29T10:25:08;98857.69;;;26.33;31.37
22753;BME280;11543;43.144;24.684;2024-03-29T10:27:34;98855.16;;;26.32;29.55
22753;BME280;11543;43.144;24.684;2024-03-29T10:29:59;98845.38;;;26.63;29.60
22753;BME280;11543;43.144;24.684;2024-03-29T10:32:25;98853.06;;;26.88;29.03
22753;BME280;11543;43.144;24.684;2024-03-29T10:34:51;98848.72;;;26.92;29.14
22753;BME280;11543;43.144;24.684;2024-03-29T10:37:17;98853.69;;;26.95;30.13
22753;BME280;11543;43.144;24.684;2024-03-29T10:39:50;98846.22;;;26.90;29.47
22753;BME280;11543;43.144;24.684;2024-03-29T10:42:16;98855.56;;;26.89;29.44
22753;BME280;11543;43.144;24.684;2024-03-29T10:44:44;98849.13;;;27.06;29.43
22753;BME280;11543;43.144;24.684;2024-03-29T10:47:13;98849.59;;;27.29;28.67
22753;BME280;11543;43.144;24.684;2024-03-29T10:49:43;98835.94;;;27.45;27.88
22753;BME280;11543;43.144;24.684;2024-03-29T10:52:10;98837.53;;;27.36;28.40
22753;BME280;11543;43.144;24.684;2024-03-29T10:54:40;98833.22;;;27.50;29.35
22753;BME280;11543;43.144;24.684;2024-03-29T10:57:32;98829.13;;;27.57;30.43
22753;BME280;11543;43.144;24.684;2024-03-29T11:00:24;98809.50;;;27.49;28.64
22753;BME280;11543;43.144;24.684;2024-03-29T11:03:14;98822.97;;;27.40;28.14
22753;BME280;11543;43.144;24.684;2024-03-29T11:05:46;98819.47;;;27.55;27.50
22753;BME280;11543;43.144;24.684;2024-03-29T11:08:16;98814.44;;;27.79;29.38
22753;BME280;11543;43.144;24.684;2024-03-29T11:10:45;98804.81;;;27.86;28.50
22753;BME280;11543;43.144;24.684;2024-03-29T11:15:49;98809.94;;;28.20;28.20
22753;BME280;11543;43.144;24.684;2024-03-29T11:18:16;98814.41;;;28.26;28.67
22753;BME280;11543;43.144;24.684;2024-03-29T11:20:45;98801.19;;;28.38;28.12
22753;BME280;11543;43.144;24.684;2024-03-29T11:23:17;98795.69;;;28.48;28.33
22753;BME280;11543;43.144;24.684;2024-03-29T11:25:50;98803.97;;;28.53;29.08
22753;BME280;11543;43.144;24.684;2024-03-29T11:28:30;98795.75;;;28.69;28.24
22753;BME280;11543;43.144;24.684;2024-03-29T11:31:06;98796.84;;;28.68;28.64
22753;BME280;11543;43.144;24.684;2024-03-29T11:36:15;98787.41;;;28.53;29.01
22753;BME280;11543;43.144;24.684;2024-03-29T11:38:42;98787.97;;;28.50;28.08
22753;BME280;11543;43.144;24.684;2024-03-29T11:41:15;98777.19;;;28.39;28.76
22753;BME280;11543;43.144;24.684;2024-03-29T11:43:41;98782.31;;;28.15;28.15
22753;BME280;11543;43.144;24.684;2024-03-29T11:46:12;98776.81;;;28.20;27.14
22753;BME280;11543;43.144;24.684;2024-03-29T11:48:38;98789.59;;;28.36;29.01
22753;BME280;11543;43.144;24.684;2024-03-29T11:51:06;98773.03;;;28.36;29.78
22753;BME280;11543;43.144;24.684;2024-03-29T11:53:33;98768.06;;;28.38;28.91
22753;BME280;11543;43.144;24.684;2024-03-29T11:56:00;98768.59;;;28.25;30.49
22753;BME280;11543;43.144;24.684;2024-03-29T11:58:31;98774.03;;;28.15;28.49
22753;BME280;11543;43.144;24.684;2024-03-29T12:00:57;98767.94;;;28.08;28.93
22753;BME280;11543;43.144;24.684;2024-03-29T12:03:25;98767.63;;;27.94;29.21
22753;BME280;11543;43.144;24.684;2024-03-29T12:05:53;98771.59;;;27.66;29.41
22753;BME280;11543;43.144;24.684;2024-03-29T12:08:20;98776.03;;;27.67;29.07
22753;BME280;11543;43.144;24.684;2024-03-29T12:10:46;98771.38;;;27.73;29.33
22753;BME280;11543;43.144;24.684;2024-03-29T12:13:11;98748.44;;;27.62;28.94
22753;BME280;11543;43.144;24.684;2024-03-29T12:15:37;98769.69;;;27.67;29.32
22753;BME280;11543;43.144;24.684;2024-03-29T12:18:04;98771.59;;;27.66;30.21
22753;BME280;11543;43.144;24.684;2024-03-29T12:20:31;98767.72;;;27.62;29.73
22753;BME280;11543;43.144;24.684;2024-03-29T12:23:00;98759.72;;;27.60;29.21
22753;BME280;11543;43.144;24.684;2024-03-29T12:25:28;98762.25;;;27.67;28.85
22753;BME280;11543;43.144;24.684;2024-03-29T12:27:54;98765.56;;;27.69;29.21
22753;BME280;11543;43.144;24.684;2024-03-29T12:30:20;98751.22;;;27.67;29.47
22753;BME280;11543;43.144;24.684;2024-03-29T12:32:46;98762.59;;;27.76;29.12
22753;BME280;11543;43.144;24.684;2024-03-29T12:35:13;98760.69;;;27.81;29.30
22753;BME280;11543;43.144;24.684;2024-03-29T12:37:47;98766.78;;;27.88;29.04
22753;BME280;11543;43.144;24.684;2024-03-29T12:40:16;98758.50;;;27.88;28.88
22753;BME280;11543;43.144;24.684;2024-03-29T12:42:50;98763.47;;;27.91;29.13
22753;BME280;11543;43.144;24.684;2024-03-29T12:45:18;98768.47;;;27.95;29.37
22753;BME280;11543;43.144;24.684;2024-03-29T12:47:47;98763.81;;;28.05;27.95
22753;BME280;11543;43.144;24.684;2024-03-29T12:50:19;98765.75;;;28.10;28.57
22753;BME280;11543;43.144;24.684;2024-03-29T12:52:49;98760.25;;;28.15;29.29
22753;BME280;11543;43.144;24.684;2024-03-29T12:55:14;98761.91;;;28.11;28.20